createdAt,value
2022-10-31T00:01:22.234Z,9.50
2022-10-31T00:03:48.997Z,9.50
2022-10-31T00:06:19.113Z,9.50
2022-10-31T00:08:47.461Z,9.50
2022-10-31T00:11:14.563Z,9.50
2022-10-31T00:13:41.394Z,9.50
2022-10-31T00:16:15.361Z,9.40
2022-10-31T00:18:42.138Z,9.40
2022-10-31T00:21:09.022Z,10.30
2022-10-31T00:23:35.900Z,9.10
2022-10-31T00:26:04.023Z,9.30
2022-10-31T00:28:31.919Z,9.40
2022-10-31T00:31:02.623Z,9.40
2022-10-31T00:33:29.617Z,9.40
2022-10-31T00:35:57.832Z,9.30
2022-10-31T00:38:24.560Z,9.30
2022-10-31T00:40:51.319Z,10.50
2022-10-31T00:43:18.178Z,9.30
2022-10-31T00:45:45.022Z,9.80
2022-10-31T00:48:12.040Z,9.20
2022-10-31T00:50:39.572Z,9.20
2022-10-31T00:53:06.932Z,9.10
2022-10-31T00:55:34.180Z,9.10
2022-10-31T00:58:01.535Z,10.10
2022-10-31T01:00:28.980Z,9.20
2022-10-31T01:02:55.799Z,9.20
2022-10-31T01:05:22.762Z,9.20
2022-10-31T01:07:49.527Z,9.20
2022-10-31T01:10:16.378Z,10.20
2022-10-31T01:12:45.712Z,9.10
2022-10-31T01:15:15.320Z,9.10
2022-10-31T01:17:42.232Z,9.10
2022-10-31T01:20:10.065Z,9.70
2022-10-31T01:22:36.860Z,9.10
2022-10-31T01:25:04.027Z,9.00
2022-10-31T01:27:32.594Z,9.00
2022-10-31T01:29:59.413Z,9.00
2022-10-31T01:32:26.275Z,9.00
2022-10-31T01:34:52.956Z,8.90
2022-10-31T01:37:19.661Z,8.90
2022-10-31T01:39:46.352Z,8.90
2022-10-31T01:42:20.692Z,8.90
2022-10-31T01:44:55.305Z,9.20
2022-10-31T01:47:34.892Z,8.90
2022-10-31T01:50:07.162Z,8.90
2022-10-31T01:52:49.311Z,8.90
2022-10-31T01:55:38.850Z,8.80
2022-10-31T02:00:49.205Z,9.20
2022-10-31T02:03:17.263Z,8.80
2022-10-31T02:05:44.684Z,8.80
2022-10-31T02:08:31.722Z,8.80
2022-10-31T02:11:00.352Z,8.80
2022-10-31T02:13:28.711Z,8.80
2022-10-31T02:15:58.549Z,9.60
2022-10-31T02:18:27.942Z,9.10
2022-10-31T02:21:19.784Z,8.70
2022-10-31T02:24:20.482Z,8.70
2022-10-31T02:26:55.974Z,8.70
2022-10-31T02:29:58.355Z,8.70
2022-10-31T02:33:06.278Z,8.60
2022-10-31T02:35:41.717Z,8.60
2022-10-31T02:38:17.843Z,8.60
2022-10-31T02:41:08.514Z,8.60
2022-10-31T02:43:45.075Z,8.60
2022-10-31T02:46:18.951Z,8.60
2022-10-31T02:48:47.951Z,8.50
2022-10-31T02:51:15.239Z,8.50
2022-10-31T02:53:41.919Z,8.50
2022-10-31T02:56:13.998Z,8.50
2022-10-31T02:58:51.216Z,9.60
2022-10-31T03:02:02.270Z,9.20
2022-10-31T03:04:59.518Z,8.40
2022-10-31T03:07:48.156Z,8.40
2022-10-31T03:10:22.867Z,8.40
2022-10-31T03:13:04.465Z,8.40
2022-10-31T03:15:41.520Z,8.40
2022-10-31T03:18:34.111Z,9.00
2022-10-31T03:21:28.454Z,8.40
2022-10-31T03:23:58.181Z,8.40
2022-10-31T03:26:26.042Z,8.30
2022-10-31T03:29:06.982Z,8.30
2022-10-31T03:31:40.037Z,9.30
2022-10-31T03:34:08.704Z,8.30
2022-10-31T03:36:38.622Z,8.30
2022-10-31T03:39:08.683Z,8.30
2022-10-31T03:41:41.654Z,8.20
2022-10-31T03:44:14.805Z,8.20
2022-10-31T03:46:43.168Z,8.20
2022-10-31T03:49:10.514Z,8.20
2022-10-31T03:51:58.601Z,8.20
2022-10-31T03:54:50.998Z,8.20
2022-10-31T03:57:25.377Z,8.10
2022-10-31T03:59:58.310Z,8.10
2022-10-31T04:02:30.223Z,8.10
2022-10-31T04:04:57.757Z,8.10
2022-10-31T04:07:29.322Z,9.00
2022-10-31T04:09:58.512Z,8.10
2022-10-31T04:12:27.269Z,9.20
2022-10-31T04:14:55.047Z,8.30
2022-10-31T04:17:26.134Z,8.70
2022-10-31T04:19:52.837Z,8.00
2022-10-31T04:22:19.634Z,8.00
2022-10-31T04:24:46.385Z,8.00
2022-10-31T04:27:13.088Z,8.00
2022-10-31T04:29:39.779Z,8.00
2022-10-31T04:32:06.508Z,9.60
2022-10-31T04:34:33.202Z,7.90
2022-10-31T04:36:59.924Z,9.00
2022-10-31T04:39:26.904Z,7.90
2022-10-31T04:41:53.941Z,7.90
2022-10-31T04:44:20.754Z,7.80
2022-10-31T04:46:47.581Z,7.80
2022-10-31T04:49:14.445Z,7.80
2022-10-31T04:51:41.293Z,7.80
2022-10-31T04:54:08.110Z,7.80
2022-10-31T04:56:34.846Z,9.20
2022-10-31T04:59:01.686Z,7.80
2022-10-31T05:01:29.046Z,7.70
2022-10-31T05:03:55.990Z,7.70
2022-10-31T05:06:22.729Z,7.20
2022-10-31T05:08:49.443Z,7.70
2022-10-31T05:11:16.236Z,7.70
2022-10-31T05:13:42.996Z,9.20
2022-10-31T05:16:09.703Z,7.70
2022-10-31T05:18:36.413Z,7.70
2022-10-31T05:21:03.185Z,7.60
2022-10-31T05:23:29.866Z,7.60
2022-10-31T05:25:56.582Z,7.70
2022-10-31T05:28:23.422Z,7.70
2022-10-31T05:30:50.675Z,7.70
2022-10-31T05:33:17.492Z,7.70
2022-10-31T05:35:44.279Z,8.80
2022-10-31T05:38:10.974Z,7.60
2022-10-31T05:40:37.662Z,7.70
2022-10-31T05:43:04.460Z,7.70
2022-10-31T05:45:31.297Z,7.60
2022-10-31T05:48:00.549Z,7.70
2022-10-31T05:50:29.651Z,7.70
2022-10-31T05:53:01.750Z,7.70
2022-10-31T05:55:29.641Z,7.70
2022-10-31T05:57:56.773Z,7.80
2022-10-31T06:00:25.511Z,8.70
2022-10-31T06:03:03.268Z,7.70
2022-10-31T06:05:30.706Z,7.70
2022-10-31T06:07:58.717Z,7.70
2022-10-31T06:10:26.676Z,7.70
2022-10-31T06:12:53.570Z,7.70
2022-10-31T06:15:24.207Z,7.70
2022-10-31T06:18:05.684Z,7.70
2022-10-31T06:20:33.825Z,7.70
2022-10-31T06:23:01.342Z,8.30
2022-10-31T06:25:28.740Z,7.70
2022-10-31T06:27:55.974Z,7.50
2022-10-31T06:30:22.808Z,7.80
2022-10-31T06:32:50.697Z,7.80
2022-10-31T06:35:17.816Z,7.80
2022-10-31T06:37:51.312Z,7.70
2022-10-31T06:40:18.200Z,7.90
2022-10-31T06:42:44.890Z,7.90
2022-10-31T06:45:11.592Z,7.90
2022-10-31T06:47:56.875Z,7.90
2022-10-31T06:50:25.023Z,8.40
2022-10-31T06:52:53.446Z,8.00
2022-10-31T06:55:23.593Z,8.00
2022-10-31T06:57:52.037Z,8.10
2022-10-31T07:00:18.978Z,8.10
2022-10-31T07:02:54.461Z,8.20
2022-10-31T07:05:21.195Z,8.20
2022-10-31T07:07:48.328Z,8.60
2022-10-31T07:10:15.196Z,8.20
2022-10-31T07:12:42.114Z,8.40
2022-10-31T07:15:09.149Z,9.40
2022-10-31T07:17:35.932Z,8.60
2022-10-31T07:20:02.769Z,8.60
2022-10-31T07:22:39.229Z,8.70
2022-10-31T07:25:06.584Z,9.50
2022-10-31T07:27:42.788Z,8.80
2022-10-31T07:30:11.960Z,8.90
2022-10-31T07:32:43.681Z,9.00
2022-10-31T07:35:12.803Z,9.10
2022-10-31T07:37:39.850Z,10.20
2022-10-31T07:40:08.867Z,9.30
2022-10-31T07:42:40.372Z,9.40
2022-10-31T07:45:09.783Z,9.40
2022-10-31T07:47:47.244Z,9.50
2022-10-31T07:50:16.568Z,9.50
2022-10-31T07:52:43.485Z,9.60
2022-10-31T07:55:10.371Z,9.70
2022-10-31T07:57:40.472Z,9.70
2022-10-31T08:00:11.025Z,9.80
2022-10-31T08:02:37.818Z,9.80
2022-10-31T08:05:04.785Z,9.90
2022-10-31T08:07:37.957Z,9.90
2022-10-31T08:10:05.547Z,10.00
2022-10-31T08:12:32.304Z,10.00
2022-10-31T08:14:59.048Z,10.10
2022-10-31T08:17:25.774Z,10.20
2022-10-31T08:19:52.477Z,10.20
2022-10-31T08:22:19.218Z,11.30
2022-10-31T08:24:46.039Z,10.40
2022-10-31T08:27:12.902Z,10.40
2022-10-31T08:29:39.608Z,10.70
2022-10-31T08:32:06.318Z,10.60
2022-10-31T08:34:33.158Z,10.70
2022-10-31T08:36:59.892Z,10.80
2022-10-31T08:39:26.654Z,10.90
2022-10-31T08:41:53.536Z,11.00
2022-10-31T08:44:20.267Z,11.00
2022-10-31T08:46:47.020Z,11.10
2022-10-31T08:49:13.719Z,11.10
2022-10-31T08:51:40.566Z,11.20
2022-10-31T08:54:07.293Z,11.30
2022-10-31T08:56:34.063Z,11.30
2022-10-31T08:59:00.931Z,11.40
2022-10-31T09:01:27.732Z,11.50
2022-10-31T09:03:54.604Z,11.50
2022-10-31T09:06:21.387Z,11.60
2022-10-31T09:08:48.283Z,11.60
2022-10-31T09:11:18.517Z,11.70
2022-10-31T09:13:45.237Z,11.80
2022-10-31T09:16:12.070Z,11.80
2022-10-31T09:18:38.790Z,11.90
2022-10-31T09:21:05.700Z,11.90
2022-10-31T09:23:32.979Z,12.00
2022-10-31T09:26:01.676Z,12.10
2022-10-31T09:28:28.396Z,12.20
2022-10-31T09:30:55.676Z,12.20
2022-10-31T09:33:22.833Z,12.30
2022-10-31T09:35:49.990Z,12.40
2022-10-31T09:38:21.557Z,12.40
2022-10-31T09:41:06.874Z,12.50
2022-10-31T09:43:45.621Z,12.50
2022-10-31T09:46:16.494Z,12.60
2022-10-31T09:49:02.036Z,12.70
2022-10-31T09:52:00.479Z,12.80
2022-10-31T09:54:43.714Z,12.90
2022-10-31T09:57:15.410Z,13.10
2022-10-31T09:59:44.577Z,13.20
2022-10-31T10:02:28.809Z,13.30
2022-10-31T10:05:01.887Z,13.40
2022-10-31T10:07:56.270Z,13.50
2022-10-31T10:10:41.769Z,13.60
2022-10-31T10:13:20.825Z,13.70
2022-10-31T10:16:08.964Z,13.80
2022-10-31T10:19:13.997Z,13.90
2022-10-31T10:21:55.681Z,14.00
2022-10-31T10:24:40.702Z,14.00
2022-10-31T10:27:25.694Z,14.10
2022-10-31T10:30:05.163Z,14.20
2022-10-31T10:32:42.207Z,14.50
2022-10-31T10:35:21.472Z,14.40
2022-10-31T10:37:51.943Z,14.50
2022-10-31T10:40:19.784Z,14.60
2022-10-31T10:43:18.212Z,14.60
2022-10-31T10:46:11.729Z,14.70
2022-10-31T10:48:44.041Z,14.80
2022-10-31T10:51:58.233Z,14.90
2022-10-31T10:55:03.528Z,15.00
2022-10-31T10:57:43.993Z,15.10
2022-10-31T11:00:22.460Z,15.20
2022-10-31T11:02:49.926Z,15.30
2022-10-31T11:05:29.060Z,15.30
2022-10-31T11:07:55.897Z,15.40
2022-10-31T11:10:22.924Z,15.50
2022-10-31T11:13:24.325Z,15.50
2022-10-31T11:15:59.687Z,15.50
2022-10-31T11:18:28.862Z,15.60
2022-10-31T11:20:58.484Z,15.70
2022-10-31T11:23:27.518Z,15.50
2022-10-31T11:25:59.321Z,15.80
2022-10-31T11:28:27.717Z,15.90
2022-10-31T11:30:58.638Z,15.30
2022-10-31T11:33:33.647Z,16.00
2022-10-31T11:36:03.531Z,16.00
2022-10-31T11:38:41.531Z,17.30
2022-10-31T11:41:18.203Z,16.20
2022-10-31T11:43:53.038Z,16.20
2022-10-31T11:46:35.649Z,15.50
2022-10-31T11:49:02.945Z,16.40
2022-10-31T11:51:35.877Z,16.50
2022-10-31T11:54:05.075Z,16.50
2022-10-31T11:56:42.190Z,16.50
2022-10-31T11:59:30.051Z,16.60
2022-10-31T12:02:01.940Z,16.70
2022-10-31T12:04:42.779Z,17.20
2022-10-31T12:07:09.668Z,16.70
2022-10-31T12:09:38.088Z,17.10
2022-10-31T12:12:39.354Z,16.80
2022-10-31T12:15:39.585Z,16.80
2022-10-31T12:18:25.219Z,16.80
2022-10-31T12:20:58.140Z,16.90
2022-10-31T12:23:30.504Z,16.90
2022-10-31T12:26:23.866Z,17.00
2022-10-31T12:29:25.814Z,17.00
2022-10-31T12:32:23.533Z,17.00
2022-10-31T12:35:02.786Z,16.90
2022-10-31T12:37:49.604Z,17.00
2022-10-31T12:40:44.053Z,17.00
2022-10-31T12:43:37.006Z,17.00
2022-10-31T12:46:06.355Z,17.10
2022-10-31T12:49:16.158Z,17.10
2022-10-31T12:52:10.759Z,17.10
2022-10-31T12:54:59.211Z,17.20
2022-10-31T12:57:44.150Z,17.50
2022-10-31T13:00:19.139Z,17.20
2022-10-31T13:03:01.828Z,18.00
2022-10-31T13:05:44.404Z,17.20
2022-10-31T13:08:13.006Z,17.20
2022-10-31T13:11:07.471Z,17.20
2022-10-31T13:13:57.244Z,17.20
2022-10-31T13:16:28.997Z,17.30
2022-10-31T13:19:01.810Z,17.10
2022-10-31T13:21:35.441Z,17.20
2022-10-31T13:24:09.314Z,17.30
2022-10-31T13:26:44.482Z,17.20
2022-10-31T13:29:32.999Z,17.30
2022-10-31T13:32:05.047Z,17.30
2022-10-31T13:34:34.770Z,17.30
2022-10-31T13:37:25.479Z,17.30
2022-10-31T13:40:25.830Z,17.20
2022-10-31T13:43:15.502Z,17.20
2022-10-31T13:45:56.274Z,17.20
2022-10-31T13:48:29.385Z,17.20
2022-10-31T13:51:22.663Z,17.80
2022-10-31T13:53:52.365Z,17.20
2022-10-31T13:56:23.981Z,17.20
2022-10-31T13:59:20.606Z,17.10
2022-10-31T14:01:56.997Z,17.50
2022-10-31T14:04:26.714Z,17.10
2022-10-31T14:06:53.475Z,17.60
2022-10-31T14:09:33.559Z,17.30
2022-10-31T14:12:10.539Z,17.10
2022-10-31T14:14:51.353Z,17.10
2022-10-31T14:17:24.947Z,17.10
2022-10-31T14:20:10.232Z,17.10
2022-10-31T14:22:42.559Z,17.10
2022-10-31T14:25:35.574Z,17.10
2022-10-31T14:28:23.647Z,17.10
2022-10-31T14:30:59.470Z,17.10
2022-10-31T14:33:28.827Z,17.00
2022-10-31T14:36:17.435Z,17.00
2022-10-31T14:39:11.455Z,17.00
2022-10-31T14:41:50.121Z,16.90
2022-10-31T14:44:43.631Z,16.90
2022-10-31T14:47:40.225Z,16.80
2022-10-31T14:50:44.759Z,16.80
2022-10-31T14:53:31.686Z,16.70
2022-10-31T14:56:04.244Z,16.60
2022-10-31T14:58:46.689Z,16.60
2022-10-31T15:01:40.832Z,18.00
2022-10-31T15:04:25.258Z,16.40
2022-10-31T15:07:20.428Z,16.10
2022-10-31T15:10:02.755Z,16.20
2022-10-31T15:12:32.696Z,16.10
2022-10-31T15:15:16.179Z,16.60
2022-10-31T15:17:46.731Z,16.00
2022-10-31T15:20:18.281Z,15.90
2022-10-31T15:22:45.180Z,15.80
2022-10-31T15:25:20.720Z,16.70
2022-10-31T15:27:49.204Z,15.70
2022-10-31T15:30:24.595Z,16.00
2022-10-31T15:32:58.235Z,15.50
2022-10-31T15:35:31.170Z,15.40
2022-10-31T15:38:00.284Z,15.30
2022-10-31T15:40:27.922Z,15.20
2022-10-31T15:42:57.182Z,15.20
2022-10-31T15:45:27.800Z,15.10
2022-10-31T15:48:03.967Z,15.00
2022-10-31T15:50:39.212Z,14.90
2022-10-31T15:53:15.204Z,14.90
2022-10-31T15:55:50.076Z,14.60
2022-10-31T15:58:18.395Z,14.70
2022-10-31T16:00:45.374Z,14.60
2022-10-31T16:03:12.042Z,14.60
2022-10-31T16:05:48.201Z,14.50
2022-10-31T16:08:30.086Z,14.40
2022-10-31T16:11:07.269Z,14.20
2022-10-31T16:13:37.283Z,14.30
2022-10-31T16:19:05.859Z,14.20
2022-10-31T16:21:38.500Z,14.10
2022-10-31T16:24:20.783Z,14.10
2022-10-31T16:26:53.660Z,14.00
2022-10-31T16:29:33.105Z,14.00
2022-10-31T16:31:59.963Z,14.00
2022-10-31T16:34:27.276Z,14.00
2022-10-31T16:36:54.360Z,13.90
2022-10-31T16:39:21.387Z,13.90
2022-10-31T16:41:51.625Z,13.90
2022-10-31T16:44:22.674Z,13.90
2022-10-31T16:47:05.750Z,13.90
2022-10-31T16:49:32.483Z,13.80
2022-10-31T16:51:59.153Z,13.80
2022-10-31T16:54:25.879Z,13.80
2022-10-31T16:56:52.623Z,13.70
2022-10-31T16:59:19.329Z,13.70
2022-10-31T17:01:49.658Z,13.70
2022-10-31T17:04:16.806Z,14.00
2022-10-31T17:06:43.527Z,13.50
